Time;durP1;ratioP1;P1;durP2;ratioP2;P2;SDS_P1;SDS_P2;PMS_P1;PMS_P2;Temp;Humidity;BMP_temperature;BMP_pressure;BME280_temperature;BME280_humidity;BME280_pressure;Samples;Min_cycle;Max_cycle;Signal;HPM_P1;HPM_P2
2023/04/19 00:01:43;;;;;;;3.43;3.13;;;13.10;67.30;;;;;;926677;150;27346;-73
2023/04/19 00:04:10;;;;;;;4.07;2.90;;;13.00;67.30;;;;;;927001;150;27284;-73
2023/04/19 00:06:36;;;;;;;3.20;2.80;;;13.00;67.30;;;;;;927163;150;27311;-73
2023/04/19 00:09:03;;;;;;;2.83;2.63;;;13.00;67.50;;;;;;927499;150;27284;-73
2023/04/19 00:11:30;;;;;;;3.23;2.97;;;13.00;67.70;;;;;;926248;150;27357;-72
2023/04/19 00:13:56;;;;;;;2.60;2.37;;;13.00;67.80;;;;;;926997;150;27345;-73
2023/04/19 00:16:23;;;;;;;3.23;2.93;;;13.00;68.40;;;;;;926801;150;27447;-73
2023/04/19 00:18:49;;;;;;;2.97;2.70;;;13.00;67.80;;;;;;926367;150;27311;-73
2023/04/19 00:21:16;;;;;;;2.93;2.73;;;13.00;67.90;;;;;;927296;150;27401;-73
2023/04/19 00:23:43;;;;;;;3.00;2.80;;;13.00;68.00;;;;;;937853;149;27490;-73
2023/04/19 00:26:10;;;;;;;2.77;2.57;;;13.10;68.10;;;;;;944686;149;27392;-74
2023/04/19 00:28:36;;;;;;;3.23;2.87;;;13.10;68.10;;;;;;944639;149;27422;-75
2023/04/19 00:31:02;;;;;;;4.93;2.90;;;13.10;68.00;;;;;;951417;147;27398;-74
2023/04/19 00:33:29;;;;;;;3.33;2.83;;;13.10;68.10;;;;;;929312;150;27393;-73
2023/04/19 00:35:56;;;;;;;2.70;2.50;;;13.10;68.20;;;;;;926997;150;27454;-73
2023/04/19 00:38:22;;;;;;;3.27;2.97;;;13.10;68.30;;;;;;943305;148;27336;-73
2023/04/19 00:40:49;;;;;;;2.80;2.60;;;13.10;68.30;;;;;;940703;149;27365;-73
2023/04/19 00:43:18;;;;;;;2.80;2.60;;;13.10;68.40;;;;;;939983;149;27396;-73
2023/04/19 00:45:45;;;;;;;2.92;2.72;;;13.10;68.50;;;;;;942213;149;27465;-73
2023/04/19 00:48:11;;;;;;;4.23;3.00;;;13.10;68.50;;;;;;940250;149;27337;-73
2023/04/19 00:50:38;;;;;;;2.90;2.50;;;13.20;68.60;;;;;;941963;149;27439;-73
2023/04/19 00:53:04;;;;;;;2.83;2.53;;;13.20;68.60;;;;;;943982;148;27298;-73
2023/04/19 00:55:31;;;;;;;2.90;2.70;;;13.20;68.50;;;;;;944406;148;27328;-73
2023/04/19 00:57:58;;;;;;;2.67;2.47;;;13.20;68.60;;;;;;941074;149;27385;-73
2023/04/19 01:00:25;;;;;;;2.50;2.30;;;13.20;69.30;;;;;;941605;149;27354;-73
2023/04/19 01:02:51;;;;;;;2.50;2.33;;;13.30;68.60;;;;;;941520;149;27423;-73
2023/04/19 01:05:17;;;;;;;2.73;2.53;;;13.30;68.60;;;;;;943632;148;27321;-73
2023/04/19 01:07:44;;;;;;;2.73;2.53;;;13.40;68.70;;;;;;938344;150;27370;-73
2023/04/19 01:10:11;;;;;;;2.60;2.40;;;13.40;68.90;;;;;;943608;148;27348;-73
2023/04/19 01:12:37;;;;;;;2.57;2.37;;;13.40;68.90;;;;;;927664;150;27761;-73
2023/04/19 01:15:04;;;;;;;3.00;2.80;;;13.40;68.80;;;;;;943248;149;27317;-73
2023/04/19 01:17:30;;;;;;;2.87;2.67;;;13.40;68.90;;;;;;944470;148;27361;-73
2023/04/19 01:20:00;;;;;;;2.80;2.60;;;13.40;69.00;;;;;;943611;148;27357;-73
2023/04/19 01:22:27;;;;;;;2.73;2.53;;;13.40;69.00;;;;;;938867;149;27410;-73
2023/04/19 01:24:53;;;;;;;3.67;2.67;;;13.40;69.00;;;;;;930447;151;27359;-73
2023/04/19 01:27:20;;;;;;;3.37;3.07;;;13.40;69.00;;;;;;928827;153;27819;-73
2023/04/19 01:29:46;;;;;;;5.57;2.80;;;13.40;69.00;;;;;;926908;153;27369;-73
2023/04/19 01:32:13;;;;;;;3.60;2.90;;;13.50;69.10;;;;;;943868;152;27289;-73
2023/04/19 01:34:40;;;;;;;3.30;3.00;;;13.50;69.20;;;;;;943833;151;27660;-73
2023/04/19 01:37:06;;;;;;;3.37;3.07;;;13.50;69.20;;;;;;929544;153;27332;-73
2023/04/19 01:39:33;;;;;;;3.37;3.07;;;13.50;69.20;;;;;;928849;153;27381;-73
2023/04/19 01:42:00;;;;;;;3.17;2.87;;;13.50;69.20;;;;;;929760;154;27378;-73
2023/04/19 01:44:26;;;;;;;3.77;3.30;;;13.50;69.30;;;;;;943330;151;27302;-73
2023/04/19 01:46:53;;;;;;;3.20;2.90;;;13.50;69.20;;;;;;941951;151;27332;-73
2023/04/19 01:49:19;;;;;;;2.93;2.73;;;13.50;69.20;;;;;;926615;153;27271;-73
2023/04/19 01:51:46;;;;;;;4.00;3.70;;;13.50;69.10;;;;;;941595;151;27441;-73
2023/04/19 01:54:12;;;;;;;3.07;2.87;;;13.50;69.20;;;;;;940883;149;27916;-73
2023/04/19 01:56:39;;;;;;;3.70;3.40;;;13.50;70.00;;;;;;941887;149;27329;-73
2023/04/19 01:59:05;;;;;;;3.80;3.40;;;13.50;69.40;;;;;;927248;153;27307;-72
2023/04/19 02:01:32;;;;;;;4.23;3.93;;;13.50;69.30;;;;;;941093;149;27438;-73
2023/04/19 02:03:58;;;;;;;4.30;3.90;;;13.50;69.20;;;;;;942014;152;27338;-73
2023/04/19 02:06:25;;;;;;;3.40;3.10;;;13.50;69.20;;;;;;944399;149;27400;-73
2023/04/19 02:08:52;;;;;;;3.87;3.50;;;13.50;69.20;;;;;;941391;152;27376;-73
2023/04/19 02:11:18;;;;;;;3.67;3.37;;;13.50;69.20;;;;;;940585;149;27353;-73
2023/04/19 02:13:45;;;;;;;3.80;3.50;;;13.50;69.30;;;;;;927177;152;27368;-73
2023/04/19 02:16:11;;;;;;;3.87;3.50;;;13.50;69.40;;;;;;926794;153;27358;-74
2023/04/19 02:18:39;;;;;;;4.30;3.90;;;13.50;69.40;;;;;;927507;153;27330;-73
2023/04/19 02:21:05;;;;;;;4.30;3.63;;;13.50;69.70;;;;;;940662;152;27304;-77
2023/04/19 02:23:31;;;;;;;5.63;3.90;;;13.50;69.60;;;;;;922849;155;27447;-77
2023/04/19 02:25:58;;;;;;;3.67;3.37;;;13.50;69.60;;;;;;942020;148;27492;-77
2023/04/19 02:28:24;;;;;;;4.17;3.77;;;13.50;69.70;;;;;;934812;147;27354;-77
2023/04/19 02:30:51;;;;;;;4.30;3.90;;;13.50;69.80;;;;;;932707;149;27341;-77
2023/04/19 02:33:17;;;;;;;3.93;3.63;;;13.50;69.80;;;;;;931729;149;27294;-77
2023/04/19 02:35:44;;;;;;;4.10;3.80;;;13.40;69.60;;;;;;911250;153;27377;-77
2023/04/19 02:38:11;;;;;;;4.57;4.17;;;13.40;69.60;;;;;;910182;154;27532;-77
2023/04/19 02:40:37;;;;;;;4.07;3.77;;;13.40;69.70;;;;;;912329;154;27448;-77
2023/04/19 02:43:04;;;;;;;3.50;3.23;;;13.40;69.90;;;;;;913433;154;27467;-77
2023/04/19 02:45:30;;;;;;;4.83;3.77;;;13.40;69.80;;;;;;913333;154;27325;-77
2023/04/19 02:47:58;;;;;;;4.10;3.70;;;13.40;69.80;;;;;;913245;154;27413;-77
2023/04/19 02:50:24;;;;;;;4.23;3.93;;;13.40;70.10;;;;;;913626;154;27380;-77
2023/04/19 02:52:50;;;;;;;4.10;3.80;;;13.40;70.10;;;;;;912892;154;27373;-73
2023/04/19 02:55:17;;;;;;;4.60;4.20;;;13.50;70.20;;;;;;913707;154;27396;-73
2023/04/19 02:57:43;;;;;;;4.20;3.90;;;13.50;70.30;;;;;;913395;154;27409;-73
2023/04/19 03:00:10;;;;;;;4.93;4.20;;;13.50;70.40;;;;;;897449;156;27416;-73
2023/04/19 03:02:38;;;;;;;4.30;4.00;;;13.50;70.50;;;;;;910443;153;27326;-73
2023/04/19 03:05:03;;;;;;;5.43;4.93;;;13.40;69.60;;;;;;913181;154;27346;-73
2023/04/19 03:07:30;;;;;;;4.50;4.10;;;13.40;70.40;;;;;;913215;154;27412;-73
2023/04/19 03:09:56;;;;;;;5.60;5.10;;;13.50;70.60;;;;;;913437;154;27443;-73
2023/04/19 03:12:23;;;;;;;5.67;5.17;;;13.40;70.60;;;;;;913425;154;27421;-73
2023/04/19 03:14:49;;;;;;;6.00;5.50;;;13.40;70.70;;;;;;911689;155;27354;-73
2023/04/19 03:17:16;;;;;;;7.87;5.87;;;13.40;70.80;;;;;;908325;155;27355;-73
2023/04/19 03:19:43;;;;;;;5.43;4.93;;;13.40;70.90;;;;;;911509;153;27488;-73
2023/04/19 03:22:09;;;;;;;5.90;5.30;;;13.40;71.00;;;;;;931335;149;27419;-73
2023/04/19 03:24:36;;;;;;;5.97;5.47;;;13.40;71.20;;;;;;911188;153;27509;-73
2023/04/19 03:27:02;;;;;;;7.00;6.30;;;13.40;71.20;;;;;;941148;148;27365;-73
2023/04/19 03:29:29;;;;;;;6.20;5.57;;;13.40;71.40;;;;;;942823;149;27341;-73
2023/04/19 03:31:56;;;;;;;6.53;5.97;;;13.40;71.40;;;;;;940516;150;27471;-73
2023/04/19 03:34:22;;;;;;;6.37;5.27;;;13.40;71.50;;;;;;938515;150;27346;-73
2023/04/19 03:36:49;;;;;;;6.60;5.83;;;13.40;71.50;;;;;;938090;150;27404;-73
2023/04/19 03:39:15;;;;;;;7.13;6.10;;;13.40;71.60;;;;;;950735;148;27404;-73
2023/04/19 03:41:42;;;;;;;5.60;4.93;;;13.40;71.60;;;;;;943482;148;27357;-73
2023/04/19 03:44:09;;;;;;;6.33;5.67;;;13.40;71.70;;;;;;944046;148;27344;-73
2023/04/19 03:46:35;;;;;;;6.53;5.83;;;13.40;71.70;;;;;;941486;149;27403;-73
2023/04/19 03:49:02;;;;;;;6.60;6.00;;;13.40;72.00;;;;;;937846;148;27320;-73
2023/04/19 03:51:28;;;;;;;6.63;6.00;;;13.40;72.00;;;;;;943792;148;27254;-73
2023/04/19 03:53:55;;;;;;;6.10;5.50;;;13.30;72.00;;;;;;944065;148;27301;-73
2023/04/19 03:56:21;;;;;;;6.20;5.70;;;13.30;72.00;;;;;;944182;149;27447;-73
2023/04/19 03:58:48;;;;;;;6.27;5.67;;;13.30;72.10;;;;;;944831;149;27320;-73
2023/04/19 04:01:17;;;;;;;7.00;5.90;;;13.30;72.10;;;;;;916622;152;27311;-73
2023/04/19 04:03:44;;;;;;;7.03;6.33;;;13.30;72.30;;;;;;941217;148;27334;-73
2023/04/19 04:06:11;;;;;;;7.03;5.90;;;13.30;72.30;;;;;;941497;149;27472;-74
2023/04/19 04:08:37;;;;;;;6.33;5.73;;;13.20;71.70;;;;;;943574;148;27443;-75
2023/04/19 04:11:04;;;;;;;6.37;5.77;;;13.20;72.50;;;;;;945672;148;27394;-75
2023/04/19 04:13:30;;;;;;;5.90;5.40;;;13.20;72.60;;;;;;933252;149;27398;-75
2023/04/19 04:15:57;;;;;;;6.20;5.60;;;13.20;72.80;;;;;;940729;149;27357;-75
2023/04/19 04:18:25;;;;;;;6.10;5.50;;;13.20;73.10;;;;;;938561;148;27461;-75
2023/04/19 04:20:50;;;;;;;6.27;5.57;;;13.20;73.20;;;;;;939263;150;27336;-75
2023/04/19 04:23:17;;;;;;;6.30;5.70;;;13.20;73.30;;;;;;940356;150;27319;-75
2023/04/19 04:25:43;;;;;;;5.73;5.13;;;13.20;73.40;;;;;;943032;148;27379;-75
2023/04/19 04:28:10;;;;;;;6.80;6.20;;;13.10;73.50;;;;;;947189;147;28111;-74
2023/04/19 04:30:36;;;;;;;7.83;6.17;;;13.20;73.70;;;;;;948327;147;27347;-75
2023/04/19 04:33:03;;;;;;;6.20;5.60;;;13.20;73.80;;;;;;938729;150;27403;-75
2023/04/19 04:35:30;;;;;;;6.80;6.20;;;13.20;73.90;;;;;;946109;147;27296;-74
2023/04/19 04:37:56;;;;;;;7.27;6.57;;;13.20;74.20;;;;;;933681;150;27391;-74
2023/04/19 04:40:23;;;;;;;7.30;6.60;;;13.20;74.20;;;;;;941718;149;27454;-75
2023/04/19 04:42:51;;;;;;;6.73;6.13;;;13.20;74.20;;;;;;941907;149;27283;-75
2023/04/19 04:45:17;;;;;;;6.53;5.93;;;13.20;74.20;;;;;;943180;148;27313;-75
2023/04/19 04:47:45;;;;;;;5.83;5.33;;;13.20;75.10;;;;;;925933;150;27462;-74
2023/04/19 04:50:09;;;;;;;6.83;5.80;;;13.20;74.50;;;;;;932723;150;27394;-74
2023/04/19 04:52:36;;;;;;;6.10;5.60;;;13.20;74.60;;;;;;936980;150;27358;-75
2023/04/19 04:55:02;;;;;;;6.80;6.20;;;13.30;74.70;;;;;;943251;148;27292;-75
2023/04/19 04:57:29;;;;;;;7.27;6.57;;;13.30;75.00;;;;;;948199;147;27598;-75
2023/04/19 04:59:55;;;;;;;6.73;6.03;;;13.30;75.10;;;;;;945119;149;27459;-75
2023/04/19 05:02:22;;;;;;;6.00;5.43;;;13.40;75.30;;;;;;943338;149;27388;-75
2023/04/19 05:04:49;;;;;;;6.23;5.63;;;13.40;75.60;;;;;;942829;148;27290;-75
2023/04/19 05:07:15;;;;;;;6.12;5.55;;;13.50;76.00;;;;;;941180;149;27318;-75
2023/04/19 05:09:42;;;;;;;7.03;6.17;;;13.60;76.10;;;;;;940972;149;27417;-75
2023/04/19 05:12:08;;;;;;;6.58;5.97;;;13.70;76.10;;;;;;943813;148;27851;-75
2023/04/19 05:14:35;;;;;;;7.27;6.57;;;13.80;75.90;;;;;;943570;148;27315;-74
2023/04/19 05:17:02;;;;;;;6.33;5.83;;;13.90;75.80;;;;;;927985;150;27350;-75
2023/04/19 05:19:28;;;;;;;7.22;6.53;;;14.00;76.00;;;;;;929400;150;27474;-75
2023/04/19 05:21:55;;;;;;;7.47;6.78;;;14.10;75.60;;;;;;931932;150;27408;-75
2023/04/19 05:24:21;;;;;;;7.20;6.60;;;14.20;75.80;;;;;;943330;148;27815;-75
2023/04/19 05:26:48;;;;;;;6.80;6.20;;;14.30;75.30;;;;;;940393;149;27459;-73
2023/04/19 05:29:14;;;;;;;6.83;6.22;;;14.30;75.00;;;;;;930177;153;27365;-73
2023/04/19 05:31:41;;;;;;;6.65;5.95;;;14.40;74.80;;;;;;929857;153;27392;-73
2023/04/19 05:34:08;;;;;;;8.23;6.58;;;14.40;74.50;;;;;;924022;155;27376;-73
2023/04/19 05:36:34;;;;;;;6.67;6.07;;;14.40;74.30;;;;;;926490;154;27350;-73
2023/04/19 05:39:01;;;;;;;7.28;6.47;;;14.40;74.20;;;;;;927002;153;27380;-73
2023/04/19 05:41:27;;;;;;;7.30;6.53;;;14.40;74.10;;;;;;941010;151;27345;-73
2023/04/19 05:43:54;;;;;;;7.50;6.90;;;14.40;74.20;;;;;;941178;152;27357;-73
2023/04/19 05:46:21;;;;;;;8.98;7.42;;;14.30;74.30;;;;;;940903;152;27323;-73
2023/04/19 05:48:47;;;;;;;7.45;6.62;;;14.40;74.40;;;;;;941175;152;27305;-73
2023/04/19 05:51:16;;;;;;;7.33;6.67;;;14.40;74.50;;;;;;941191;151;27310;-73
2023/04/19 05:53:40;;;;;;;6.60;5.97;;;14.40;74.40;;;;;;941148;149;27429;-73
2023/04/19 05:56:07;;;;;;;6.75;6.15;;;14.40;74.20;;;;;;927802;152;27352;-73
2023/04/19 05:58:34;;;;;;;7.28;6.58;;;14.40;74.10;;;;;;936941;149;27323;-73
2023/04/19 06:01:00;;;;;;;7.62;6.58;;;14.50;73.90;;;;;;927907;153;27766;-73
2023/04/19 06:03:27;;;;;;;7.22;6.30;;;14.50;73.70;;;;;;920054;155;27314;-73
2023/04/19 06:05:53;;;;;;;7.05;6.37;;;14.50;73.60;;;;;;929235;150;27457;-73
2023/04/19 06:08:20;;;;;;;6.80;6.20;;;14.50;73.50;;;;;;939040;150;27352;-73
2023/04/19 06:10:48;;;;;;;7.00;6.40;;;14.50;73.30;;;;;;941308;149;27378;-73
2023/04/19 06:13:13;;;;;;;6.90;6.30;;;14.50;73.30;;;;;;941454;149;27435;-73
2023/04/19 06:15:40;;;;;;;7.92;7.00;;;14.50;73.20;;;;;;940533;151;27347;-73
2023/04/19 06:18:09;;;;;;;7.72;6.95;;;14.50;73.30;;;;;;931999;152;27366;-73
2023/04/19 06:20:38;;;;;;;9.88;6.87;;;14.60;73.30;;;;;;929138;153;27446;-73
2023/04/19 06:23:05;;;;;;;7.45;6.60;;;14.60;73.30;;;;;;939886;149;27446;-73
2023/04/19 06:25:31;;;;;;;7.00;6.37;;;14.60;73.20;;;;;;944410;149;27413;-73
2023/04/19 06:27:58;;;;;;;8.33;6.78;;;14.60;73.20;;;;;;944836;148;27331;-73
2023/04/19 06:30:25;;;;;;;7.03;6.33;;;14.60;72.80;;;;;;943901;150;27286;-73
2023/04/19 06:32:51;;;;;;;6.57;5.97;;;14.60;72.70;;;;;;926765;151;27346;-73
2023/04/19 06:35:18;;;;;;;6.55;5.85;;;14.60;72.70;;;;;;942343;149;27434;-73
2023/04/19 06:37:44;;;;;;;35.58;10.20;;;14.60;72.50;;;;;;925050;154;27298;-73
2023/04/19 06:40:11;;;;;;;7.83;6.20;;;14.60;72.20;;;;;;923540;154;27400;-73
2023/04/19 06:42:37;;;;;;;6.37;5.78;;;14.60;71.90;;;;;;923050;154;27427;-73
2023/04/19 06:45:06;;;;;;;6.37;5.77;;;14.50;71.80;;;;;;937225;152;27455;-73
2023/04/19 06:47:32;;;;;;;9.50;6.07;;;14.50;71.70;;;;;;939384;152;27388;-73
2023/04/19 06:49:59;;;;;;;6.80;6.03;;;14.50;71.50;;;;;;939420;152;27314;-73
2023/04/19 06:52:25;;;;;;;5.53;4.83;;;14.40;71.40;;;;;;925929;153;27430;-73
2023/04/19 06:54:52;;;;;;;12.43;5.80;;;14.40;71.20;;;;;;925165;151;27683;-73
2023/04/19 06:57:19;;;;;;;8.45;6.22;;;14.30;71.10;;;;;;925011;151;28409;-73
2023/04/19 06:59:45;;;;;;;6.22;5.40;;;14.30;71.10;;;;;;937243;152;27256;-73
2023/04/19 07:02:12;;;;;;;5.10;4.60;;;14.30;70.90;;;;;;922738;154;27365;-73
2023/04/19 07:04:38;;;;;;;5.07;4.43;;;14.30;70.80;;;;;;923078;153;27448;-73
2023/04/19 07:07:05;;;;;;;16.53;5.80;;;14.20;70.80;;;;;;936306;152;27294;-73
2023/04/19 07:09:32;;;;;;;5.37;4.77;;;14.20;70.80;;;;;;936222;152;27339;-73
2023/04/19 07:11:58;;;;;;;15.53;5.83;;;14.20;70.80;;;;;;922662;153;27422;-73
2023/04/19 07:14:25;;;;;;;4.58;4.17;;;14.20;70.70;;;;;;936375;152;27362;-73
2023/04/19 07:16:52;;;;;;;4.33;3.93;;;14.20;70.60;;;;;;923064;154;27354;-73
2023/04/19 07:19:19;;;;;;;5.20;3.65;;;14.30;70.30;;;;;;921727;154;27424;-73
2023/04/19 07:21:45;;;;;;;7.72;3.62;;;14.30;69.90;;;;;;922191;154;27405;-74
2023/04/19 07:24:11;;;;;;;4.10;3.25;;;14.30;69.70;;;;;;935977;149;27302;-73
2023/04/19 07:26:38;;;;;;;3.55;3.25;;;14.20;69.60;;;;;;929249;151;27365;-73
2023/04/19 07:29:04;;;;;;;4.28;3.30;;;14.30;69.60;;;;;;930212;151;27442;-73
2023/04/19 07:31:31;;;;;;;4.58;3.30;;;14.30;69.70;;;;;;910660;153;27463;-73
2023/04/19 07:33:57;;;;;;;5.05;3.62;;;14.30;69.60;;;;;;899491;153;27307;-73
2023/04/19 07:36:24;;;;;;;3.77;3.47;;;14.30;69.70;;;;;;913614;154;27422;-73
2023/04/19 07:38:51;;;;;;;3.65;3.35;;;14.30;69.70;;;;;;912938;154;27396;-73
2023/04/19 07:41:17;;;;;;;4.10;3.63;;;14.40;69.20;;;;;;912067;154;27445;-73
2023/04/19 07:43:44;;;;;;;3.57;3.27;;;14.40;69.60;;;;;;911493;154;27365;-73
2023/04/19 07:46:10;;;;;;;3.87;3.57;;;14.50;69.60;;;;;;906607;157;27456;-73
2023/04/19 07:48:37;;;;;;;4.95;3.47;;;14.50;69.60;;;;;;907119;157;27512;-73
2023/04/19 07:51:13;;;;;;;3.40;3.10;;;14.60;69.40;;;;;;932273;149;27340;-73
2023/04/19 07:53:40;;;;;;;6.30;3.35;;;14.60;69.60;;;;;;931173;149;27419;-73
2023/04/19 07:56:06;;;;;;;3.55;3.25;;;14.70;69.70;;;;;;932220;149;27301;-73
2023/04/19 07:58:33;;;;;;;3.40;3.10;;;14.90;70.00;;;;;;910737;153;27321;-73
2023/04/19 08:01:00;;;;;;;4.03;3.42;;;15.00;70.10;;;;;;910460;155;27405;-73
2023/04/19 08:03:26;;;;;;;3.80;3.40;;;15.20;70.10;;;;;;895540;156;27437;-73
2023/04/19 08:05:52;;;;;;;3.80;3.50;;;15.40;70.20;;;;;;913937;154;27345;-73
2023/04/19 08:08:19;;;;;;;3.80;3.40;;;15.70;70.60;;;;;;912780;154;27298;-73
2023/04/19 08:10:46;;;;;;;3.60;3.30;;;16.10;70.70;;;;;;912928;154;27440;-73
2023/04/19 08:13:12;;;;;;;3.22;2.98;;;16.50;70.40;;;;;;912313;154;27544;-73
2023/04/19 08:15:39;;;;;;;3.70;3.40;;;16.90;70.80;;;;;;905690;155;27923;-73
2023/04/19 08:18:05;;;;;;;3.22;2.98;;;17.30;69.90;;;;;;906625;155;27355;-73
2023/04/19 08:20:32;;;;;;;3.52;3.22;;;17.80;69.60;;;;;;910752;154;27522;-73
2023/04/19 08:22:59;;;;;;;4.10;3.25;;;18.30;69.20;;;;;;912401;154;27508;-73
2023/04/19 08:25:27;;;;;;;11.68;3.10;;;19.00;68.70;;;;;;912888;154;27531;-74
2023/04/19 08:27:52;;;;;;;4.20;2.80;;;19.60;67.80;;;;;;913736;154;27476;-73
2023/04/19 08:30:18;;;;;;;3.20;2.70;;;20.20;67.40;;;;;;934345;149;27354;-73
2023/04/19 08:32:45;;;;;;;3.37;2.30;;;20.90;65.90;;;;;;944635;148;27446;-74
2023/04/19 08:35:14;;;;;;;2.80;2.60;;;21.50;64.80;;;;;;925652;150;27449;-75
2023/04/19 08:37:38;;;;;;;3.12;2.85;;;22.20;63.20;;;;;;937156;150;27433;-79
2023/04/19 08:40:05;;;;;;;2.15;2.02;;;22.80;59.40;;;;;;942916;148;27329;-79
2023/04/19 08:42:32;;;;;;;2.72;2.52;;;23.30;59.10;;;;;;942141;148;27446;-79
2023/04/19 08:44:58;;;;;;;2.47;2.27;;;23.80;58.50;;;;;;942944;148;27423;-79
2023/04/19 08:47:25;;;;;;;2.83;2.20;;;24.20;57.60;;;;;;927631;150;27465;-80
2023/04/19 08:49:51;;;;;;;2.10;1.92;;;24.50;56.10;;;;;;932039;150;27325;-79
2023/04/19 08:52:18;;;;;;;2.00;1.90;;;24.90;55.70;;;;;;944551;148;27388;-79
2023/04/19 08:54:45;;;;;;;2.33;2.10;;;25.30;55.30;;;;;;943982;148;27635;-80
2023/04/19 08:57:11;;;;;;;1.95;1.77;;;25.70;55.30;;;;;;941476;149;27351;-79
2023/04/19 08:59:38;;;;;;;2.58;2.20;;;26.20;54.40;;;;;;942251;149;27349;-79
2023/04/19 09:02:04;;;;;;;3.15;1.80;;;26.60;53.00;;;;;;940908;149;27312;-79
2023/04/19 09:04:31;;;;;;;2.60;2.40;;;27.10;52.80;;;;;;940616;149;27419;-80
2023/04/19 09:06:57;;;;;;;1.95;1.85;;;27.50;52.00;;;;;;944364;151;27329;-79
2023/04/19 09:09:27;;;;;;;2.20;2.10;;;27.70;51.00;;;;;;925703;150;27564;-80
2023/04/19 09:11:53;;;;;;;2.08;1.98;;;27.90;49.30;;;;;;943190;148;27467;-80
2023/04/19 09:14:20;;;;;;;1.77;1.67;;;28.00;49.20;;;;;;943175;148;27402;-80
2023/04/19 09:16:47;;;;;;;2.22;1.90;;;28.10;49.40;;;;;;941416;149;27354;-80
2023/04/19 09:19:15;;;;;;;2.45;2.25;;;28.30;48.60;;;;;;944142;148;27522;-80
2023/04/19 09:21:40;;;;;;;2.02;1.92;;;28.30;47.50;;;;;;943125;148;27340;-80
2023/04/19 09:24:06;;;;;;;2.30;2.10;;;28.40;46.20;;;;;;941979;149;27375;-80
2023/04/19 09:26:33;;;;;;;2.47;2.25;;;28.30;45.80;;;;;;941847;149;27381;-80
2023/04/19 09:29:03;;;;;;;2.02;1.90;;;28.20;44.70;;;;;;944143;148;27437;-80
2023/04/19 09:31:29;;;;;;;2.40;2.20;;;28.00;45.20;;;;;;940359;148;27323;-80
2023/04/19 09:33:55;;;;;;;2.55;2.35;;;27.80;44.50;;;;;;929580;153;27332;-80
2023/04/19 09:36:28;;;;;;;2.40;2.20;;;27.70;44.20;;;;;;943758;151;27348;-80
2023/04/19 09:38:55;;;;;;;3.15;2.40;;;27.50;44.30;;;;;;943594;151;27365;-80
2023/04/19 09:41:21;;;;;;;1.98;1.87;;;27.30;42.90;;;;;;939683;151;27383;-80
2023/04/19 09:43:48;;;;;;;3.52;2.15;;;27.00;44.10;;;;;;938677;152;27396;-80
2023/04/19 09:46:32;;;;;;;2.50;2.30;;;26.80;42.90;;;;;;938817;152;27403;-80
2023/04/19 09:49:15;;;;;;;3.60;2.98;;;26.60;43.90;;;;;;939375;151;27441;-80
2023/04/19 09:51:44;;;;;;;3.20;2.40;;;26.30;43.40;;;;;;940554;151;27466;-79
2023/04/19 09:54:11;;;;;;;2.30;2.17;;;26.00;43.70;;;;;;933014;151;27418;-79
2023/04/19 09:56:37;;;;;;;3.22;2.60;;;25.70;44.10;;;;;;929479;152;27345;-80
2023/04/19 09:59:04;;;;;;;2.85;2.62;;;25.40;42.60;;;;;;929352;153;27303;-80
2023/04/19 10:01:42;;;;;;;2.95;2.72;;;25.10;43.40;;;;;;929234;153;27910;-79
2023/04/19 10:04:12;;;;;;;3.30;2.83;;;24.70;42.60;;;;;;928220;152;27346;-80
2023/04/19 10:06:38;;;;;;;3.05;2.80;;;24.30;43.10;;;;;;939086;149;27325;-79
2023/04/19 10:09:05;;;;;;;3.30;3.00;;;23.80;42.90;;;;;;926097;154;27371;-79
2023/04/19 10:11:37;;;;;;;2.60;2.40;;;23.40;41.80;;;;;;941137;150;27369;-80
2023/04/19 10:13:58;;;;;;;3.40;2.95;;;23.00;43.00;;;;;;935617;151;27388;-79
2023/04/19 10:16:25;;;;;;;3.85;2.87;;;22.60;43.20;;;;;;932651;151;27327;-79
2023/04/19 10:18:51;;;;;;;3.27;2.95;;;22.10;42.80;;;;;;941544;150;27342;-80
2023/04/19 10:21:18;;;;;;;3.87;3.05;;;21.80;43.70;;;;;;941252;150;27298;-80
2023/04/19 10:23:45;;;;;;;3.42;3.08;;;21.50;44.10;;;;;;941238;151;27927;-80
2023/04/19 10:26:11;;;;;;;3.50;3.15;;;21.20;44.00;;;;;;941491;152;27356;-80
2023/04/19 10:28:38;;;;;;;2.92;2.65;;;20.90;44.50;;;;;;941265;149;27310;-80
2023/04/19 10:31:04;;;;;;;3.10;2.90;;;20.70;44.80;;;;;;947145;147;27295;-79
2023/04/19 10:33:34;;;;;;;3.65;3.00;;;20.40;45.20;;;;;;949897;147;27428;-79
2023/04/19 10:36:00;;;;;;;3.05;2.77;;;20.20;44.90;;;;;;953874;147;27339;-80
2023/04/19 10:38:47;;;;;;;3.37;3.08;;;19.90;44.80;;;;;;935808;150;27372;-80
2023/04/19 10:41:13;;;;;;;3.22;3.00;;;19.70;45.30;;;;;;950816;148;27424;-80
2023/04/19 10:43:38;;;;;;;3.42;3.15;;;19.40;46.20;;;;;;945755;148;27490;-79
2023/04/19 10:46:07;;;;;;;3.27;2.98;;;19.30;46.40;;;;;;947183;148;27333;-80
2023/04/19 10:48:34;;;;;;;3.25;3.00;;;19.10;46.80;;;;;;947273;148;27442;-79
2023/04/19 10:51:15;;;;;;;3.45;3.08;;;18.90;47.00;;;;;;947076;148;27391;-79
2023/04/19 10:53:48;;;;;;;3.25;2.95;;;18.80;46.90;;;;;;947587;148;27368;-79
2023/04/19 10:56:14;;;;;;;2.87;2.67;;;18.70;47.50;;;;;;948826;147;27341;-79
2023/04/19 10:58:59;;;;;;;3.25;2.67;;;18.60;47.20;;;;;;940037;149;27322;-80
2023/04/19 11:01:44;;;;;;;3.22;2.92;;;18.40;47.10;;;;;;936491;149;27325;-79
2023/04/19 11:04:11;;;;;;;3.17;2.90;;;18.30;47.00;;;;;;947157;148;27418;-80
2023/04/19 11:06:37;;;;;;;3.20;2.90;;;18.20;47.40;;;;;;947669;148;27358;-80
2023/04/19 11:09:06;;;;;;;2.92;2.62;;;18.10;47.40;;;;;;943427;149;27504;-79
2023/04/19 11:11:36;;;;;;;2.47;2.27;;;18.00;47.50;;;;;;945533;150;27396;-79
2023/04/19 11:14:03;;;;;;;2.62;2.42;;;17.90;47.30;;;;;;945322;149;27359;-80
2023/04/19 11:16:29;;;;;;;2.22;2.00;;;17.80;47.30;;;;;;946471;149;27395;-79
2023/04/19 11:18:56;;;;;;;3.87;2.12;;;17.70;47.00;;;;;;945978;149;27788;-80
2023/04/19 11:21:22;;;;;;;2.05;1.90;;;17.70;46.40;;;;;;945943;151;27387;-80
2023/04/19 11:23:49;;;;;;;2.37;2.10;;;17.60;46.80;;;;;;948943;147;27266;-80
2023/04/19 11:26:16;;;;;;;1.82;1.57;;;17.60;46.50;;;;;;950004;146;27288;-80
2023/04/19 11:28:42;;;;;;;1.90;1.70;;;17.60;46.60;;;;;;949329;148;27479;-80
2023/04/19 11:31:09;;;;;;;3.65;1.82;;;17.60;46.40;;;;;;946712;148;27497;-80
2023/04/19 11:33:35;;;;;;;2.10;2.00;;;17.60;45.90;;;;;;947195;148;27395;-80
2023/04/19 11:36:02;;;;;;;1.60;1.50;;;17.60;45.60;;;;;;945782;148;27415;-79
2023/04/19 11:38:31;;;;;;;1.70;1.60;;;17.60;44.80;;;;;;942581;149;27337;-80
2023/04/19 11:41:01;;;;;;;1.60;1.50;;;17.60;45.00;;;;;;941654;149;27365;-80
2023/04/19 11:43:33;;;;;;;1.60;1.50;;;17.50;45.00;;;;;;940121;149;27438;-80
2023/04/19 11:46:06;;;;;;;1.90;1.50;;;17.50;44.80;;;;;;940522;149;27348;-80
2023/04/19 11:48:32;;;;;;;1.35;1.25;;;17.50;45.00;;;;;;941405;149;27369;-80
2023/04/19 11:50:59;;;;;;;5.37;1.80;;;17.50;45.00;;;;;;941622;149;27432;-80
2023/04/19 11:53:28;;;;;;;1.50;1.40;;;17.50;42.70;;;;;;941489;149;27402;-79
2023/04/19 11:55:52;;;;;;;1.60;1.50;;;17.50;43.00;;;;;;941007;149;27412;-80
2023/04/19 11:58:28;;;;;;;1.25;1.17;;;17.50;42.80;;;;;;942217;149;27470;-80
2023/04/19 12:00:59;;;;;;;1.40;1.30;;;17.50;43.40;;;;;;941857;149;27456;-79
2023/04/19 12:03:23;;;;;;;1.87;1.27;;;17.50;43.90;;;;;;941043;149;27427;-80
2023/04/19 12:05:56;;;;;;;1.20;1.10;;;17.50;44.20;;;;;;941728;149;27403;-80
2023/04/19 12:08:32;;;;;;;1.42;1.17;;;17.50;44.10;;;;;;942594;149;27421;-80
2023/04/19 12:10:58;;;;;;;1.57;1.35;;;17.50;43.20;;;;;;942017;149;27437;-80
2023/04/19 12:13:25;;;;;;;1.40;1.30;;;17.60;43.20;;;;;;943723;148;27339;-80
2023/04/19 12:15:51;;;;;;;1.72;1.12;;;17.60;42.80;;;;;;943762;148;27292;-80
2023/04/19 12:18:18;;;;;;;1.70;1.30;;;17.60;43.40;;;;;;941883;149;27377;-80
2023/04/19 12:20:45;;;;;;;2.50;1.50;;;17.60;43.00;;;;;;942256;149;27361;-80
2023/04/19 12:23:12;;;;;;;1.30;1.20;;;17.50;41.90;;;;;;941343;149;27310;-80
2023/04/19 12:25:38;;;;;;;1.50;1.20;;;17.50;42.30;;;;;;940751;149;27424;-80
2023/04/19 12:28:04;;;;;;;1.00;1.00;;;17.50;42.50;;;;;;945067;148;27314;-80
2023/04/19 12:30:31;;;;;;;1.42;1.25;;;17.50;42.60;;;;;;938803;150;27358;-80
2023/04/19 12:32:57;;;;;;;1.55;1.45;;;17.50;42.50;;;;;;941507;148;27792;-79
2023/04/19 12:35:27;;;;;;;3.58;1.10;;;17.50;42.00;;;;;;941539;152;27432;-80
2023/04/19 12:37:53;;;;;;;0.93;0.93;;;17.50;42.00;;;;;;942038;152;27401;-79
2023/04/19 12:40:20;;;;;;;1.17;1.12;;;17.50;42.20;;;;;;941708;151;27438;-80
2023/04/19 12:42:46;;;;;;;1.30;1.20;;;17.50;41.80;;;;;;928569;153;27328;-79
2023/04/19 12:45:13;;;;;;;1.07;1.00;;;17.50;41.50;;;;;;941337;152;27394;-80